createdAt,value
2023-02-14T00:01:47.191Z,31.50
2023-02-14T00:04:16.698Z,31.63
2023-02-14T00:06:43.958Z,30.95
2023-02-14T00:09:17.151Z,32.72
2023-02-14T00:11:45.612Z,30.90
2023-02-14T00:14:34.649Z,32.30
2023-02-14T00:17:02.635Z,32.13
2023-02-14T00:19:34.980Z,30.63
2023-02-14T00:22:04.615Z,31.52
2023-02-14T00:24:32.365Z,30.95
2023-02-14T00:27:00.795Z,31.08
2023-02-14T00:29:30.582Z,32.28
2023-02-14T00:31:57.770Z,32.38
2023-02-14T00:34:25.294Z,30.90
2023-02-14T00:36:52.912Z,31.55
2023-02-14T00:39:20.979Z,31.80
2023-02-14T00:41:48.869Z,30.23
2023-02-14T00:44:18.629Z,30.75
2023-02-14T00:46:48.207Z,31.25
2023-02-14T00:49:16.061Z,30.65
2023-02-14T00:51:43.088Z,31.67
2023-02-14T00:54:09.999Z,31.67
2023-02-14T00:56:39.543Z,33.17
2023-02-14T00:59:10.413Z,32.15
2023-02-14T01:01:37.345Z,29.63
2023-02-14T01:04:05.446Z,32.65
2023-02-14T01:06:32.406Z,31.73
2023-02-14T01:09:17.176Z,31.63
2023-02-14T01:11:44.462Z,31.45
2023-02-14T01:14:11.485Z,30.05
2023-02-14T01:16:40.627Z,30.50
2023-02-14T01:19:09.261Z,30.50
2023-02-14T01:21:36.598Z,30.55
2023-02-14T01:24:07.270Z,29.73
2023-02-14T01:26:35.620Z,30.52
2023-02-14T01:29:04.018Z,30.65
2023-02-14T01:31:35.341Z,31.83
2023-02-14T01:34:02.893Z,31.88
2023-02-14T01:36:38.591Z,30.25
2023-02-14T01:39:08.808Z,29.85
2023-02-14T01:41:37.552Z,29.25
2023-02-14T01:44:30.456Z,28.83
2023-02-14T01:47:00.693Z,29.27
2023-02-14T01:49:34.670Z,30.48
2023-02-14T01:52:21.478Z,29.40
2023-02-14T01:55:01.035Z,30.17
2023-02-14T01:57:37.723Z,30.92
2023-02-14T02:00:25.661Z,30.13
2023-02-14T02:02:54.521Z,28.98
2023-02-14T02:05:23.834Z,30.13
2023-02-14T02:07:53.168Z,30.35
2023-02-14T02:10:21.094Z,28.90
2023-02-14T02:12:52.811Z,27.77
2023-02-14T02:15:23.554Z,30.20
2023-02-14T02:18:06.207Z,30.13
2023-02-14T02:20:39.923Z,29.67
2023-02-14T02:23:30.974Z,28.60
2023-02-14T02:26:34.547Z,28.95
2023-02-14T02:29:22.801Z,28.73
2023-02-14T02:32:24.404Z,28.67
2023-02-14T02:35:09.681Z,29.40
2023-02-14T02:38:05.324Z,27.80
2023-02-14T02:40:47.064Z,27.67
2023-02-14T02:43:31.235Z,28.13
2023-02-14T02:46:35.581Z,27.88
2023-02-14T02:49:08.295Z,28.52
2023-02-14T02:52:15.088Z,28.08
2023-02-14T02:54:54.643Z,28.20
2023-02-14T02:57:36.642Z,27.77
2023-02-14T03:00:07.640Z,28.52
2023-02-14T03:03:00.721Z,28.23
2023-02-14T03:05:32.441Z,28.83
2023-02-14T03:07:59.335Z,28.23
2023-02-14T03:10:31.351Z,28.95
2023-02-14T03:13:35.799Z,28.08
2023-02-14T03:16:27.287Z,27.27
2023-02-14T03:19:07.374Z,27.10
2023-02-14T03:21:51.128Z,28.02
2023-02-14T03:24:34.196Z,28.35
2023-02-14T03:27:07.133Z,27.90
2023-02-14T03:29:51.656Z,28.25
2023-02-14T03:32:36.638Z,28.83
2023-02-14T03:35:25.544Z,27.98
2023-02-14T03:38:15.563Z,27.92
2023-02-14T03:40:54.601Z,27.25
2023-02-14T03:43:31.032Z,28.77
2023-02-14T03:46:06.901Z,28.73
2023-02-14T03:48:36.865Z,27.65
2023-02-14T03:51:07.434Z,27.42
2023-02-14T03:53:38.608Z,28.65
2023-02-14T03:56:24.429Z,28.80
2023-02-14T03:58:58.538Z,26.60
2023-02-14T04:01:54.643Z,27.50
2023-02-14T04:04:27.684Z,27.55
2023-02-14T04:06:54.960Z,27.75
2023-02-14T04:09:21.797Z,29.30
2023-02-14T04:11:50.426Z,27.80
2023-02-14T04:14:18.850Z,28.20
2023-02-14T04:17:04.300Z,27.05
2023-02-14T04:19:31.150Z,26.27
2023-02-14T04:21:57.965Z,27.50
2023-02-14T04:24:25.893Z,27.25
2023-02-14T04:27:10.125Z,26.80
2023-02-14T04:29:55.392Z,26.75
2023-02-14T04:32:23.559Z,26.88
2023-02-14T04:34:50.686Z,27.05
2023-02-14T04:37:19.664Z,27.48
2023-02-14T04:39:46.527Z,27.05
2023-02-14T04:42:13.432Z,27.58
2023-02-14T04:44:41.817Z,26.10
2023-02-14T04:47:09.068Z,26.73
2023-02-14T04:49:37.892Z,25.90
2023-02-14T04:52:05.444Z,27.33
2023-02-14T04:54:32.630Z,27.55
2023-02-14T04:56:59.439Z,26.13
2023-02-14T04:59:32.058Z,27.95
2023-02-14T05:04:26.006Z,25.38
2023-02-14T05:06:53.038Z,25.75
2023-02-14T05:09:21.588Z,26.85
2023-02-14T05:11:48.446Z,26.55
2023-02-14T05:14:16.369Z,26.98
2023-02-14T05:16:43.441Z,26.60
2023-02-14T05:19:10.332Z,25.42
2023-02-14T05:21:38.248Z,26.63
2023-02-14T05:24:05.274Z,27.33
2023-02-14T05:26:33.137Z,25.90
2023-02-14T05:29:02.745Z,26.30
2023-02-14T05:31:29.874Z,25.65
2023-02-14T05:33:56.735Z,26.85
2023-02-14T05:36:24.618Z,26.00
2023-02-14T05:38:51.459Z,26.17
2023-02-14T05:41:19.364Z,25.58
2023-02-14T05:43:46.225Z,25.95
2023-02-14T05:46:13.401Z,26.13
2023-02-14T05:48:41.374Z,26.42
2023-02-14T05:51:11.583Z,25.42
2023-02-14T05:53:39.395Z,25.83
2023-02-14T05:56:06.790Z,25.33
2023-02-14T05:58:34.057Z,25.20
2023-02-14T06:01:01.623Z,25.13
2023-02-14T06:03:28.666Z,25.08
2023-02-14T06:05:55.621Z,25.33
2023-02-14T06:08:22.634Z,24.30
2023-02-14T06:10:50.454Z,24.98
2023-02-14T06:13:17.617Z,25.45
2023-02-14T06:15:45.600Z,25.50
2023-02-14T06:18:12.592Z,25.92
2023-02-14T06:20:41.464Z,27.73
2023-02-14T06:23:11.696Z,26.02
2023-02-14T06:25:39.665Z,27.08
2023-02-14T06:28:06.625Z,25.90
2023-02-14T06:30:33.553Z,33.03
2023-02-14T06:33:01.952Z,27.73
2023-02-14T06:35:28.902Z,27.30
2023-02-14T06:37:55.763Z,26.77
2023-02-14T06:40:23.987Z,25.85
2023-02-14T06:42:52.882Z,27.33
2023-02-14T06:45:28.149Z,26.40
2023-02-14T06:47:55.521Z,26.70
2023-02-14T06:50:22.415Z,28.05
2023-02-14T06:52:51.854Z,26.13
2023-02-14T06:55:18.931Z,27.75
2023-02-14T06:57:48.248Z,27.50
2023-02-14T07:00:15.484Z,27.83
2023-02-14T07:02:44.059Z,26.65
2023-02-14T07:05:10.913Z,27.88
2023-02-14T07:07:38.922Z,28.25
2023-02-14T07:10:07.583Z,27.33
2023-02-14T07:12:35.111Z,28.13
2023-02-14T07:15:06.311Z,27.95
2023-02-14T07:17:33.188Z,27.67
2023-02-14T07:20:00.723Z,27.85
2023-02-14T07:22:29.503Z,27.88
2023-02-14T07:24:57.205Z,28.75
2023-02-14T07:27:24.127Z,27.90
2023-02-14T07:29:51.052Z,28.45
2023-02-14T07:32:18.393Z,28.60
2023-02-14T07:34:45.419Z,29.15
2023-02-14T07:37:13.303Z,29.05
2023-02-14T07:39:40.267Z,29.23
2023-02-14T07:42:08.825Z,29.20
2023-02-14T07:44:38.462Z,28.40
2023-02-14T07:47:10.048Z,27.25
2023-02-14T07:49:37.297Z,27.90
2023-02-14T07:52:05.292Z,28.15
2023-02-14T07:54:32.589Z,27.40
2023-02-14T07:57:01.828Z,26.58
2023-02-14T07:59:28.785Z,27.35
2023-02-14T08:01:56.017Z,28.85
2023-02-14T08:04:26.131Z,27.80
2023-02-14T08:06:54.276Z,27.55
2023-02-14T08:09:25.394Z,25.35
2023-02-14T08:12:15.883Z,27.77
2023-02-14T08:14:43.513Z,26.90
2023-02-14T08:17:13.450Z,28.02
2023-02-14T08:19:40.988Z,26.63
2023-02-14T08:22:08.226Z,26.73
2023-02-14T08:24:35.065Z,27.58
2023-02-14T08:27:02.054Z,25.73
2023-02-14T08:29:30.858Z,27.48
2023-02-14T08:32:00.479Z,27.13
2023-02-14T08:34:28.511Z,25.98
2023-02-14T08:36:56.664Z,26.70
2023-02-14T08:39:26.623Z,27.50
2023-02-14T08:41:53.545Z,27.15
2023-02-14T08:44:22.540Z,25.65
2023-02-14T08:46:50.567Z,26.58
2023-02-14T08:49:17.677Z,27.10
2023-02-14T08:51:44.585Z,27.75
2023-02-14T08:54:11.642Z,26.08
2023-02-14T08:56:40.652Z,26.13
2023-02-14T08:59:08.259Z,25.70
2023-02-14T09:01:36.823Z,26.20
2023-02-14T09:04:08.563Z,27.10
2023-02-14T09:06:39.624Z,23.75
2023-02-14T09:09:07.189Z,26.30
2023-02-14T09:11:39.833Z,26.58
2023-02-14T09:16:34.723Z,24.60
2023-02-14T09:19:01.728Z,25.63
2023-02-14T09:21:30.372Z,25.25
2023-02-14T09:23:57.527Z,26.27
2023-02-14T09:26:25.606Z,27.23
2023-02-14T09:28:52.542Z,26.50
2023-02-14T09:31:22.533Z,25.50
2023-02-14T09:33:51.983Z,24.80
2023-02-14T09:36:21.571Z,27.35
2023-02-14T09:38:48.893Z,26.70
2023-02-14T09:41:57.122Z,27.60
2023-02-14T09:44:47.604Z,27.00
2023-02-14T09:47:49.138Z,27.23
2023-02-14T09:50:27.601Z,26.02
2023-02-14T09:52:59.446Z,23.70
2023-02-14T09:55:37.266Z,26.37
2023-02-14T09:58:16.119Z,27.88
2023-02-14T10:00:56.098Z,24.30
2023-02-14T10:03:34.164Z,25.58
2023-02-14T10:06:26.933Z,28.80
2023-02-14T10:09:17.960Z,28.00
2023-02-14T10:11:47.586Z,27.73
2023-02-14T10:14:16.326Z,27.70
2023-02-14T10:16:46.041Z,28.20
2023-02-14T10:19:33.821Z,28.30
2023-02-14T10:22:27.102Z,27.38
2023-02-14T10:25:03.152Z,29.73
2023-02-14T10:27:42.296Z,28.67
2023-02-14T10:30:21.358Z,27.27
2023-02-14T10:33:12.307Z,29.02
2023-02-14T10:36:10.818Z,28.25
2023-02-14T10:38:55.020Z,26.77
2023-02-14T10:41:38.066Z,28.75
2023-02-14T10:44:24.564Z,28.70
2023-02-14T10:46:55.473Z,28.13
2023-02-14T10:50:02.710Z,29.88
2023-02-14T10:52:58.487Z,29.38
2023-02-14T10:55:45.890Z,28.33
2023-02-14T10:58:19.828Z,28.98
2023-02-14T11:03:51.042Z,27.27
2023-02-14T11:06:34.294Z,28.00
2023-02-14T11:09:24.190Z,27.30
2023-02-14T11:12:11.711Z,26.95
2023-02-14T11:14:58.683Z,27.10
2023-02-14T11:17:32.469Z,27.60
2023-02-14T11:20:09.860Z,26.83
2023-02-14T11:22:37.833Z,28.42
2023-02-14T11:25:29.057Z,28.65
2023-02-14T11:28:05.111Z,27.75
2023-02-14T11:30:38.607Z,27.15
2023-02-14T11:33:06.645Z,28.90
2023-02-14T11:35:35.689Z,27.90
2023-02-14T11:38:05.864Z,27.05
2023-02-14T11:40:39.726Z,28.17
2023-02-14T11:43:15.280Z,28.23
2023-02-14T11:45:44.846Z,27.52
2023-02-14T11:48:36.821Z,28.08
2023-02-14T11:51:14.057Z,29.65
2023-02-14T11:53:50.380Z,28.33
2023-02-14T11:56:20.172Z,27.83
2023-02-14T11:58:54.013Z,28.98
2023-02-14T12:01:28.779Z,27.40
2023-02-14T12:04:02.321Z,27.83
2023-02-14T12:06:35.492Z,28.23
2023-02-14T12:09:25.828Z,28.17
2023-02-14T12:12:02.927Z,28.70
2023-02-14T12:14:32.703Z,27.67
2023-02-14T12:17:12.890Z,28.45
2023-02-14T12:20:00.787Z,29.60
2023-02-14T12:22:55.076Z,28.98
2023-02-14T12:25:27.246Z,27.60
2023-02-14T12:28:04.201Z,28.30
2023-02-14T12:30:37.657Z,27.92
2023-02-14T12:33:21.791Z,27.55
2023-02-14T12:36:08.050Z,26.80
2023-02-14T12:39:10.182Z,28.30
2023-02-14T12:42:03.413Z,27.13
2023-02-14T12:44:37.130Z,27.90
2023-02-14T12:47:18.943Z,28.38
2023-02-14T12:50:01.296Z,28.10
2023-02-14T12:52:54.914Z,26.90
2023-02-14T12:55:46.166Z,27.05
2023-02-14T12:58:40.354Z,27.95
2023-02-14T13:01:39.339Z,27.98
2023-02-14T13:04:22.715Z,27.55
2023-02-14T13:07:39.490Z,29.20
2023-02-14T13:10:25.783Z,28.77
2023-02-14T13:13:02.954Z,28.60
2023-02-14T13:15:46.561Z,28.42
2023-02-14T13:18:31.014Z,31.00
2023-02-14T13:21:02.133Z,29.17
2023-02-14T13:23:46.868Z,28.10
2023-02-14T13:26:29.075Z,28.35
2023-02-14T13:29:03.492Z,28.60
2023-02-14T13:31:34.381Z,27.40
2023-02-14T13:34:25.009Z,28.23
2023-02-14T13:36:52.861Z,27.75
2023-02-14T13:39:59.643Z,28.63
2023-02-14T13:42:49.445Z,28.20
2023-02-14T13:45:40.155Z,26.02
2023-02-14T13:48:19.729Z,25.38
2023-02-14T13:55:08.113Z,26.95
2023-02-14T13:57:41.245Z,25.95
2023-02-14T14:01:13.745Z,29.17
2023-02-14T14:03:46.896Z,25.70
2023-02-14T14:06:15.405Z,25.58
2023-02-14T14:08:56.086Z,26.70
2023-02-14T14:11:30.601Z,26.10
2023-02-14T14:14:05.738Z,24.42
2023-02-14T14:16:35.269Z,25.77
2023-02-14T14:19:17.542Z,29.25
2023-02-14T14:22:10.191Z,26.88
2023-02-14T14:24:40.392Z,24.95
2023-02-14T14:27:22.034Z,26.00
2023-02-14T14:29:53.408Z,25.70
2023-02-14T14:32:28.469Z,29.15
2023-02-14T14:35:02.048Z,26.95
2023-02-14T14:37:36.092Z,26.13
2023-02-14T14:40:10.044Z,25.60
2023-02-14T14:43:06.234Z,25.75
2023-02-14T14:46:37.683Z,25.50
2023-02-14T14:49:10.635Z,25.60
2023-02-14T14:51:38.748Z,25.63
2023-02-14T14:54:18.025Z,26.92
2023-02-14T14:57:01.456Z,25.55
2023-02-14T14:59:36.390Z,27.20
2023-02-14T15:02:11.345Z,26.95
2023-02-14T15:04:40.402Z,27.42
2023-02-14T15:07:34.565Z,26.20
2023-02-14T15:10:02.112Z,34.70
2023-02-14T15:12:48.685Z,40.53
2023-02-14T15:15:18.696Z,65.88
2023-02-14T15:17:47.295Z,34.25
2023-02-14T15:20:20.284Z,34.85
2023-02-14T15:22:50.773Z,35.42
2023-02-14T15:25:26.765Z,34.28
2023-02-14T15:27:54.138Z,32.90
2023-02-14T15:30:31.711Z,34.53
2023-02-14T15:33:00.166Z,34.90
2023-02-14T15:35:34.942Z,34.75
2023-02-14T15:38:05.958Z,35.22
2023-02-14T15:40:34.744Z,35.42
2023-02-14T15:43:22.209Z,33.72
2023-02-14T15:45:53.550Z,34.22
2023-02-14T15:48:30.330Z,34.08
2023-02-14T15:51:01.511Z,34.15
2023-02-14T15:53:50.068Z,35.22
2023-02-14T15:56:32.494Z,34.47
2023-02-14T15:59:26.974Z,35.63
2023-02-14T16:01:59.171Z,34.08
2023-02-14T16:04:49.002Z,33.53
2023-02-14T16:13:20.453Z,35.58
2023-02-14T16:16:04.312Z,39.78
2023-02-14T16:18:39.667Z,36.10
2023-02-14T16:24:12.571Z,33.33
2023-02-14T16:26:44.982Z,34.22
2023-02-14T16:29:18.304Z,34.50
2023-02-14T16:34:41.297Z,34.85
2023-02-14T16:37:29.655Z,34.08
2023-02-14T16:39:57.764Z,35.85
2023-02-14T16:42:25.208Z,33.72
2023-02-14T16:44:52.368Z,34.92
2023-02-14T16:47:20.872Z,36.75
2023-02-14T16:49:48.543Z,36.63
2023-02-14T16:52:20.722Z,38.92
2023-02-14T16:54:49.556Z,38.53
2023-02-14T16:57:28.500Z,37.22
2023-02-14T16:59:57.059Z,35.05
2023-02-14T17:02:30.644Z,38.75
2023-02-14T17:04:57.963Z,42.55
2023-02-14T17:07:26.484Z,38.38
2023-02-14T17:10:00.492Z,37.67
2023-02-14T17:12:36.215Z,39.15
2023-02-14T17:15:13.054Z,34.90
2023-02-14T17:17:41.775Z,36.85
2023-02-14T17:20:09.635Z,38.40
2023-02-14T17:22:38.057Z,38.92
2023-02-14T17:25:10.591Z,50.20
2023-02-14T17:28:43.810Z,39.72
2023-02-14T17:35:10.011Z,41.67
2023-02-14T17:37:37.565Z,37.55
2023-02-14T17:40:06.661Z,35.92
2023-02-14T17:42:34.715Z,35.15
2023-02-14T17:45:02.197Z,36.03
2023-02-14T17:47:33.522Z,34.25
2023-02-14T17:50:03.505Z,35.67
2023-02-14T17:52:32.207Z,35.95
2023-02-14T17:55:01.261Z,38.22
2023-02-14T17:57:32.241Z,37.55
2023-02-14T18:00:00.474Z,36.75
2023-02-14T18:02:29.462Z,40.05
2023-02-14T18:04:58.632Z,39.80
2023-02-14T18:07:25.894Z,38.30
2023-02-14T18:09:54.240Z,37.75
2023-02-14T18:12:22.640Z,37.67
2023-02-14T18:14:53.376Z,39.05
2023-02-14T18:17:20.711Z,37.08
2023-02-14T18:19:54.562Z,38.65
2023-02-14T18:22:25.051Z,37.92
2023-02-14T18:24:52.027Z,37.22
2023-02-14T18:27:18.987Z,38.65
2023-02-14T18:29:46.178Z,38.15
2023-02-14T18:32:13.250Z,38.40
2023-02-14T18:34:44.897Z,38.58
2023-02-14T18:37:14.608Z,37.75
2023-02-14T18:39:42.953Z,39.40
2023-02-14T18:42:15.455Z,37.60
2023-02-14T18:44:45.518Z,38.67
2023-02-14T18:47:12.623Z,37.58
2023-02-14T18:49:41.461Z,40.40
2023-02-14T18:52:08.488Z,40.17
2023-02-14T18:54:37.304Z,40.13
2023-02-14T18:57:04.324Z,43.65
2023-02-14T18:59:31.324Z,40.40
2023-02-14T19:01:58.304Z,40.42
2023-02-14T19:04:25.423Z,45.47
2023-02-14T19:06:52.566Z,43.53
2023-02-14T19:09:20.542Z,42.85
2023-02-14T19:11:48.843Z,43.03
2023-02-14T19:14:25.904Z,41.80
2023-02-14T19:16:54.325Z,42.22
2023-02-14T19:19:53.894Z,43.22
2023-02-14T19:22:23.304Z,43.88
2023-02-14T19:24:53.821Z,47.58
2023-02-14T19:27:21.987Z,46.40
2023-02-14T19:29:51.815Z,44.08
2023-02-14T19:32:19.251Z,45.65
2023-02-14T19:34:46.435Z,48.95
2023-02-14T19:37:14.492Z,49.75
2023-02-14T19:39:44.472Z,55.28
2023-02-14T19:42:11.849Z,53.70
2023-02-14T19:44:41.450Z,53.40
2023-02-14T19:47:26.932Z,55.58
2023-02-14T19:49:59.286Z,55.80
2023-02-14T19:52:30.843Z,52.95
2023-02-14T19:55:05.563Z,54.72
2023-02-14T19:57:32.608Z,56.72
2023-02-14T19:59:59.966Z,56.17
2023-02-14T20:02:29.169Z,55.72
2023-02-14T20:05:04.255Z,56.17
2023-02-14T20:07:39.644Z,54.72
2023-02-14T20:10:14.338Z,56.53
2023-02-14T20:12:42.510Z,55.90
2023-02-14T20:15:12.112Z,56.13
2023-02-14T20:17:39.424Z,56.13
2023-02-14T20:20:08.368Z,56.15
2023-02-14T20:22:45.259Z,55.63
2023-02-14T20:25:12.628Z,54.53
2023-02-14T20:27:41.084Z,53.22
2023-02-14T20:30:10.073Z,53.85
2023-02-14T20:32:37.781Z,50.10
2023-02-14T20:35:05.039Z,51.03
2023-02-14T20:37:31.970Z,52.95
2023-02-14T20:39:58.866Z,55.10
2023-02-14T20:42:25.874Z,53.28
2023-02-14T20:44:53.293Z,52.67
2023-02-14T20:47:20.534Z,49.63
2023-02-14T20:49:47.754Z,54.35
2023-02-14T20:52:17.991Z,52.65
2023-02-14T20:54:46.663Z,53.35
2023-02-14T20:57:13.539Z,48.47
2023-02-14T20:59:45.338Z,48.78
2023-02-14T21:02:12.266Z,47.80
2023-02-14T21:04:44.799Z,47.38
2023-02-14T21:11:07.153Z,46.88
2023-02-14T21:13:42.780Z,45.60
2023-02-14T21:16:17.181Z,48.10
2023-02-14T21:18:48.850Z,45.55
2023-02-14T21:21:27.024Z,46.10
2023-02-14T21:23:55.872Z,45.80
2023-02-14T21:26:24.646Z,48.08
2023-02-14T21:28:53.442Z,46.97
2023-02-14T21:31:21.972Z,45.05
2023-02-14T21:33:58.085Z,45.00
2023-02-14T21:36:27.993Z,45.30
2023-02-14T21:38:58.234Z,46.63
2023-02-14T21:41:28.994Z,44.90
2023-02-14T21:44:00.162Z,45.80
2023-02-14T21:46:31.168Z,47.05
2023-02-14T21:49:19.234Z,46.60
2023-02-14T21:51:47.193Z,45.40
2023-02-14T21:54:15.826Z,45.38
2023-02-14T21:56:44.547Z,46.38
2023-02-14T21:59:12.842Z,43.58
2023-02-14T22:01:42.679Z,44.80
2023-02-14T22:04:11.652Z,45.13
2023-02-14T22:06:41.175Z,43.33
2023-02-14T22:09:11.832Z,45.05
2023-02-14T22:11:38.926Z,45.28
2023-02-14T22:14:06.827Z,43.85
2023-02-14T22:16:36.766Z,44.53
2023-02-14T22:19:07.038Z,44.25
2023-02-14T22:21:34.933Z,45.40
2023-02-14T22:24:04.128Z,44.58
2023-02-14T22:26:52.310Z,44.83
2023-02-14T22:29:20.409Z,43.08
2023-02-14T22:31:47.630Z,42.70
2023-02-14T22:34:17.904Z,43.85
2023-02-14T22:36:46.226Z,45.10
2023-02-14T22:39:15.940Z,42.08
2023-02-14T22:41:44.355Z,41.60
2023-02-14T22:44:13.814Z,42.25
2023-02-14T22:46:40.968Z,40.95
2023-02-14T22:49:09.224Z,42.75
2023-02-14T22:51:41.070Z,42.20
2023-02-14T22:54:14.025Z,41.85
2023-02-14T22:56:47.451Z,42.45
2023-02-14T22:59:18.176Z,41.60
2023-02-14T23:01:46.097Z,40.85
2023-02-14T23:04:13.996Z,40.45
2023-02-14T23:06:43.463Z,42.45
2023-02-14T23:09:12.711Z,41.42
2023-02-14T23:11:43.730Z,40.67
2023-02-14T23:14:35.668Z,39.45
2023-02-14T23:17:33.576Z,39.35
2023-02-14T23:20:25.030Z,39.75
2023-02-14T23:22:51.911Z,39.00
2023-02-14T23:25:18.905Z,38.35
2023-02-14T23:27:49.606Z,38.90
2023-02-14T23:30:19.850Z,39.05
2023-02-14T23:32:48.095Z,38.80
2023-02-14T23:35:15.094Z,38.80
2023-02-14T23:37:42.046Z,38.00
2023-02-14T23:40:09.909Z,37.13
2023-02-14T23:42:40.497Z,36.95
2023-02-14T23:45:28.575Z,38.35
2023-02-14T23:47:56.525Z,37.10
2023-02-14T23:50:23.561Z,39.08
2023-02-14T23:52:51.554Z,34.63
2023-02-14T23:55:18.381Z,37.17
2023-02-14T23:57:45.407Z,36.80
